ADDS METAR Data INFO
IDs: Format: Raw Decoded Include TAF

Data at: 1944 UTC 17 Feb 2018

KPLN 171854Z AUTO 23016G27KT 10SM CLR M01/M11 A2985 RMK AO2 PK WND 23030/1839 SLP118 T10061106
KPLN 171754Z AUTO 21011G20KT 10SM CLR M02/M11 A2988 RMK AO2 PK WND 23026/1735 SLP131 T10171106 11017 21100 58028
KPLN 171654Z AUTO 23011G18KT 10SM CLR M03/M11 A2992 RMK AO2 SLP145 T10281106
KPLN 171554Z AUTO 21010G20KT 10SM CLR M03/M11 A2994 RMK AO2 SLP151 T10331106
KPLN 171454Z AUTO 19011G18KT 10SM CLR M04/M11 A2997 RMK AO2 SLP161 T10441111 58015
KPLN 171354Z AUTO 13006KT 10SM CLR M07/M12 A2999 RMK AO2 SLP168 T10721117
KPLN 171254Z AUTO 14007KT 10SM CLR M09/M12 A3000 RMK AO2 SLP173 T10891122
KPLN 171154Z AUTO 14007KT 10SM CLR M10/M13 A3001 RMK AO2 SLP178 T11001128 11067 21117 57021
KPLN 171054Z AUTO 13008KT 10SM CLR M11/M13 A3003 RMK AO2 SLP185 T11061128
KPLN 170954Z AUTO 15005KT 10SM CLR M11/M13 A3005 RMK AO2 SLP192 T11111133
KPLN 170854Z AUTO 15005KT 10SM CLR M09/M13 A3007 RMK AO2 SLP198 T10941128 56015
KPLN 170754Z AUTO 18004KT 10SM CLR M09/M13 A3009 RMK AO2 SLP204 T10891128
KPLN 170654Z AUTO 20006KT 10SM CLR M07/M12 A3010 RMK AO2 SLP205 T10671122
KPLN 170554Z AUTO VRB05KT 10SM CLR M07/M13 A3012 RMK AO2 SLP213 T10671128 11067 21083 56005
KPLN 170454Z AUTO VRB04KT 10SM CLR M07/M13 A3012 RMK AO2 SLP213 T10671133 410391083
KPLN 170354Z AUTO 16004KT 10SM CLR M07/M13 A3013 RMK AO2 SLP216 T10721133
KPLN 170254Z AUTO 18004KT 10SM CLR M08/M14 A3013 RMK AO2 SLP218 T10781139 56014
KPLN 170154Z AUTO 19004KT 10SM CLR M08/M14 A3014 RMK AO2 SLP221 T10781139
KPLN 170054Z AUTO 21005KT 10SM CLR M08/M14 A3016 RMK AO2 SLP227 T10781139
KPLN 162354Z AUTO 23004KT 10SM CLR M07/M13 A3018 RMK AO2 SLP232 T10721128 11056 21078 52008
KPLN 162254Z AUTO 25006KT 10SM CLR M07/M14 A3017 RMK AO2 SLP229 T10671144
KPLN 162154Z AUTO 25010KT 10SM CLR M06/M17 A3016 RMK AO2 SLP226 T10611167
KPLN 162054Z AUTO 26011G16KT 10SM CLR M06/M15 A3015 RMK AO2 SLP222 T10561150 53007
KPLN 161954Z AUTO 30010KT 10SM CLR M06/M14 A3014 RMK AO2 SLP218 T10611144
KPLN 161854Z AUTO 30013KT 10SM CLR M06/M12 A3013 RMK AO2 SLP215 T10611122
KPLN 161754Z AUTO 28012G21KT 10SM CLR M07/M14 A3013 RMK AO2 SLP215 60000 T10721139 11056 21072 51019
KPLN 161654Z AUTO 31016G24KT 10SM CLR M07/M14 A3013 RMK AO2 PK WND 30027/1620 SLP215 T10721139
KPLN 161554Z AUTO 31018G23KT 10SM FEW020 M07/M13 A3010 RMK AO2 PK WND 32031/1513 SLP205 T10721133
KPLN 161541Z AUTO 30016G26KT 10SM FEW020 M07/M13 A3010 RMK AO2 PK WND 32031/1513 T10671128
KPLN 161514Z AUTO 32024G31KT 7SM BKN022 M07/M11 A3009 RMK AO2 PK WND 32031/1513 T10671111
KPLN 161454Z AUTO 32015G24KT 10SM SCT022 BKN049 M06/M10 A3007 RMK AO2 PK WND 31026/1416 SNE24 SLP196 P0000 60000 T10611100 53020
KPLN 161440Z AUTO 33018G26KT 10SM FEW019 FEW025 BKN049 M06/M11 A3007 RMK AO2 PK WND 31026/1416 SNE24 P0000 T10611106
KPLN 161420Z AUTO 32020G26KT 3SM -SN BKN016 BKN025 OVC050 M06/M10 A3006 RMK AO2 PK WND 31026/1416 P0000 T10611100
KPLN 161413Z AUTO 31016G24KT 1 1/4SM -SN BKN016 OVC023 M06/M08 A3005 RMK AO2 P0000 T10561083
KPLN 161406Z AUTO 32015G24KT 3/4SM -SN OVC018 M06/M08 A3005 RMK AO2 P0000 T10561083
KPLN 161354Z AUTO 31007KT 1 1/4SM -SN BR BKN017 OVC024 M06/M08 A3004 RMK AO2 SNB20 SLP186 P0000 T10561078
KPLN 161350Z AUTO 31008KT 1 1/4SM -SN BR SCT017 BKN024 M06/M08 A3004 RMK AO2 SNB20 P0000
KPLN 161334Z AUTO 31010KT 2SM -SN BKN026 OVC045 M06/M08 A3003 RMK AO2 SNB20 P0000 T10561083
KPLN 161254Z AUTO 31007KT 10SM OVC046 M06/M09 A3001 RMK AO2 SLP174 T10561089
KPLN 161154Z AUTO 31006KT 10SM SCT041 BKN065 OVC095 M06/M08 A2999 RMK AO2 SNB08E20 SLP166 P0000 60000 T10561083 11039 21061 51031
KPLN 161132Z AUTO 32007KT 10SM FEW018 BKN075 OVC095 M06/M08 A2998 RMK AO2 SNB08E20 P0000 T10561083
KPLN 161103Z AUTO 31011KT 10SM BKN017 OVC050 M06/M08 A2997 RMK AO2 PRESRR T10561083
KPLN 161054Z AUTO 32011KT 7SM SCT017 BKN055 OVC070 M06/M08 A2996 RMK AO2 SLP156 T10611083
KPLN 161042Z AUTO 31012KT 9SM SCT016 BKN060 OVC070 M06/M08 A2995 RMK AO2 T10561083
KPLN 160954Z AUTO 33012KT 10SM BKN016 OVC090 M06/M09 A2993 RMK AO2 SLP144 T10611089
KPLN 160944Z AUTO 32010KT 10SM BKN016 BKN090 OVC110 M06/M09 A2992 RMK AO2 T10611089
KPLN 160903Z AUTO 32013KT 10SM SCT015 OVC110 M06/M09 A2990 RMK AO2 T10611089
KPLN 160854Z AUTO 33016KT 10SM BKN015 OVC120 M06/M08 A2989 RMK AO2 SLP132 T10561083 51013
KPLN 160754Z AUTO 32013KT 10SM OVC016 M05/M08 A2989 RMK AO2 SLP130 T10501078